Time;durP1;ratioP1;P1;durP2;ratioP2;P2;SDS_P1;SDS_P2;PMS_P1;PMS_P2;Temp;Humidity;BMP_temperature;BMP_pressure;BME280_temperature;BME280_humidity;BME280_pressure;Samples;Min_cycle;Max_cycle;Signal;HPM_P1;HPM_P2
2023/09/04 00:02:30;;;;;;;9.90;5.68;;;14.30;99.90;;;;;;5101282;27;20086;-77
2023/09/04 00:05:18;;;;;;;9.77;5.20;;;14.30;99.90;;;;;;5133268;27;20051;-73
2023/09/04 00:08:04;;;;;;;10.52;7.07;;;14.30;99.90;;;;;;5118845;27;20047;-79
2023/09/04 00:10:50;;;;;;;9.38;6.65;;;14.20;99.90;;;;;;5114506;27;20571;-71
2023/09/04 00:13:36;;;;;;;12.45;7.22;;;14.20;99.90;;;;;;5115172;27;20054;-72
2023/09/04 00:16:23;;;;;;;10.02;5.82;;;14.20;99.90;;;;;;5133562;27;20079;-79
2023/09/04 00:19:09;;;;;;;8.85;5.63;;;14.10;99.90;;;;;;5115967;27;20059;-77
2023/09/04 00:21:55;;;;;;;10.15;6.03;;;14.10;99.90;;;;;;5134468;27;20051;-85
2023/09/04 00:24:41;;;;;;;11.60;5.97;;;14.10;99.90;;;;;;5114353;27;20058;-79
2023/09/04 00:27:27;;;;;;;11.95;6.80;;;14.10;99.90;;;;;;5134490;27;20055;-79
2023/09/04 00:30:13;;;;;;;10.60;6.40;;;14.00;99.90;;;;;;5135045;27;20146;-81
2023/09/04 00:32:59;;;;;;;11.70;7.47;;;14.00;99.90;;;;;;5135140;27;20051;-79
2023/09/04 00:35:45;;;;;;;11.60;7.95;;;14.00;99.90;;;;;;5135702;27;20108;-79
2023/09/04 00:38:31;;;;;;;16.10;7.97;;;14.00;99.90;;;;;;5134421;27;20047;-85
2023/09/04 00:41:19;;;;;;;9.73;6.22;;;14.00;99.90;;;;;;5139356;27;20051;-79
2023/09/04 00:44:05;;;;;;;10.13;6.82;;;14.00;99.90;;;;;;5140079;27;20084;-73
2023/09/04 00:46:51;;;;;;;9.25;6.50;;;14.00;99.90;;;;;;5115327;27;20372;-72
2023/09/04 00:49:37;;;;;;;9.60;6.22;;;14.00;99.90;;;;;;5133014;27;20058;-70
2023/09/04 00:52:25;;;;;;;9.95;7.00;;;13.90;99.90;;;;;;5133356;27;20429;-72
2023/09/04 00:55:11;;;;;;;8.82;5.65;;;13.90;99.90;;;;;;5132097;27;20482;-70
2023/09/04 00:57:58;;;;;;;9.50;6.88;;;13.90;99.90;;;;;;5132137;27;20394;-71
2023/09/04 01:00:45;;;;;;;9.63;6.40;;;13.90;99.90;;;;;;5114227;27;20055;-72
2023/09/04 01:03:31;;;;;;;9.43;5.47;;;13.90;99.90;;;;;;5132863;27;20125;-75
2023/09/04 01:06:18;;;;;;;13.32;8.82;;;13.90;99.90;;;;;;5132402;27;20099;-72
2023/09/04 01:09:05;;;;;;;12.63;7.43;;;13.90;99.90;;;;;;5131526;27;20047;-80
2023/09/04 01:12:01;;;;;;;12.77;9.00;;;13.90;99.90;;;;;;5132497;27;20070;-72
2023/09/04 01:14:52;;;;;;;14.85;9.27;;;13.90;99.90;;;;;;5131940;27;20099;-70
2023/09/04 01:17:38;;;;;;;12.05;7.28;;;13.90;99.90;;;;;;5131675;27;20077;-73
2023/09/04 01:20:27;;;;;;;9.80;6.68;;;13.90;99.90;;;;;;5132410;27;20058;-76
2023/09/04 01:23:13;;;;;;;12.93;7.78;;;13.80;99.90;;;;;;5131032;27;20087;-75
2023/09/04 01:26:40;;;;;;;11.38;7.75;;;13.80;99.90;;;;;;5132015;27;20075;-76
2023/09/04 01:29:36;;;;;;;12.20;7.85;;;13.80;99.90;;;;;;5098664;27;20076;-72
2023/09/04 01:32:41;;;;;;;13.48;8.73;;;13.80;99.90;;;;;;5113521;27;20051;-73
2023/09/04 01:35:30;;;;;;;11.13;6.47;;;13.80;99.90;;;;;;5131576;27;20043;-73
2023/09/04 01:38:16;;;;;;;13.23;7.55;;;13.80;99.90;;;;;;5115107;27;20039;-71
2023/09/04 01:41:06;;;;;;;12.32;8.00;;;13.80;99.90;;;;;;5113753;27;20455;-76
2023/09/04 01:43:53;;;;;;;15.68;8.60;;;13.80;99.90;;;;;;5131649;27;20039;-72
2023/09/04 01:46:39;;;;;;;15.48;9.82;;;13.80;99.90;;;;;;5133104;27;20124;-72
2023/09/04 01:49:25;;;;;;;11.85;8.60;;;13.80;99.90;;;;;;5133108;27;20062;-77
2023/09/04 01:52:12;;;;;;;10.23;7.30;;;13.70;99.90;;;;;;5132300;27;20142;-76
2023/09/04 01:54:58;;;;;;;10.75;7.72;;;13.80;99.90;;;;;;5113209;27;20047;-71
2023/09/04 01:57:44;;;;;;;13.63;8.82;;;13.80;99.90;;;;;;5131626;27;20438;-70
2023/09/04 02:00:30;;;;;;;12.43;8.25;;;13.80;99.90;;;;;;5112954;27;20415;-75
2023/09/04 02:03:16;;;;;;;12.10;8.02;;;13.70;99.90;;;;;;5132500;27;20053;-73
2023/09/04 02:06:02;;;;;;;13.20;8.13;;;13.70;99.90;;;;;;5131468;27;20192;-85
2023/09/04 02:08:48;;;;;;;12.90;9.20;;;13.70;99.90;;;;;;5113453;27;20055;-86
2023/09/04 02:11:34;;;;;;;11.95;7.18;;;13.70;99.90;;;;;;5113108;28;20108;-72
2023/09/04 02:14:20;;;;;;;18.42;8.20;;;13.70;99.90;;;;;;5131505;27;20051;-71
2023/09/04 02:17:06;;;;;;;11.60;7.68;;;13.70;99.90;;;;;;5131113;28;20047;-73
2023/09/04 02:19:52;;;;;;;10.70;8.38;;;13.70;99.90;;;;;;5098758;28;20047;-74
2023/09/04 02:22:38;;;;;;;11.13;8.30;;;13.70;99.90;;;;;;5131581;28;20046;-70
2023/09/04 02:25:25;;;;;;;12.90;8.98;;;13.60;99.90;;;;;;5132937;28;20092;-71
2023/09/04 02:28:11;;;;;;;13.98;9.00;;;13.70;99.90;;;;;;5131510;28;20083;-72
2023/09/04 02:30:57;;;;;;;13.00;9.45;;;13.60;99.90;;;;;;5116084;28;20047;-71
2023/09/04 02:33:44;;;;;;;16.75;10.13;;;13.70;99.90;;;;;;5131241;28;20053;-73
2023/09/04 02:36:30;;;;;;;21.85;14.02;;;13.70;99.90;;;;;;5115695;28;20522;-71
2023/09/04 02:39:16;;;;;;;19.15;13.05;;;13.70;99.90;;;;;;5131757;28;20495;-71
2023/09/04 02:42:02;;;;;;;23.90;15.65;;;13.70;99.90;;;;;;5131632;28;20047;-72
2023/09/04 02:44:48;;;;;;;24.88;16.00;;;13.80;99.90;;;;;;5131609;28;20564;-72
2023/09/04 02:47:37;;;;;;;23.15;16.33;;;13.90;99.90;;;;;;5116382;27;20055;-75
2023/09/04 02:50:23;;;;;;;28.17;16.85;;;14.00;99.90;;;;;;5135331;27;20047;-73
2023/09/04 02:53:09;;;;;;;29.60;19.35;;;14.00;99.90;;;;;;5116949;27;20047;-71
2023/09/04 02:55:55;;;;;;;29.60;18.40;;;14.00;99.90;;;;;;5134221;27;20050;-73
2023/09/04 02:58:42;;;;;;;29.05;19.23;;;14.00;99.90;;;;;;5136861;27;20047;-72
2023/09/04 03:01:28;;;;;;;24.52;16.63;;;14.00;99.90;;;;;;5135271;27;20043;-71
2023/09/04 03:04:15;;;;;;;30.92;20.27;;;14.00;99.90;;;;;;5135447;27;20547;-72
2023/09/04 03:07:01;;;;;;;26.65;17.98;;;14.10;99.90;;;;;;5135700;27;20047;-70
2023/09/04 03:09:47;;;;;;;29.92;18.45;;;14.10;99.90;;;;;;5135232;27;20441;-70
2023/09/04 03:12:33;;;;;;;30.17;17.85;;;14.10;99.90;;;;;;5116733;27;20055;-72
2023/09/04 03:15:19;;;;;;;22.75;16.08;;;14.10;99.90;;;;;;5134814;27;20126;-72
2023/09/04 03:18:06;;;;;;;23.35;15.82;;;14.10;99.90;;;;;;5135251;27;20519;-71
2023/09/04 03:20:52;;;;;;;23.42;16.08;;;14.10;99.90;;;;;;5134624;27;20043;-75
2023/09/04 03:23:38;;;;;;;26.95;17.42;;;14.10;99.90;;;;;;5102141;27;20047;-71
2023/09/04 03:26:26;;;;;;;23.45;16.40;;;14.10;99.90;;;;;;5116341;27;20520;-71
2023/09/04 03:29:12;;;;;;;21.50;14.65;;;14.00;99.90;;;;;;5134116;27;20475;-71
2023/09/04 03:31:58;;;;;;;19.23;13.85;;;14.00;99.90;;;;;;5115215;27;20087;-72
2023/09/04 03:34:44;;;;;;;22.00;14.35;;;14.00;99.90;;;;;;5115565;27;20558;-76
2023/09/04 03:37:36;;;;;;;17.63;13.05;;;14.00;99.90;;;;;;5134927;27;20727;-71
2023/09/04 03:40:24;;;;;;;19.08;13.10;;;14.00;99.90;;;;;;5116647;27;20051;-73
2023/09/04 03:43:10;;;;;;;18.45;12.77;;;14.00;99.90;;;;;;5134507;27;20051;-72
2023/09/04 03:45:56;;;;;;;19.20;13.77;;;13.90;99.90;;;;;;5115926;27;20059;-71
2023/09/04 03:48:42;;;;;;;19.90;13.25;;;13.90;99.90;;;;;;5134641;27;20192;-70
2023/09/04 03:51:28;;;;;;;15.00;10.73;;;13.90;99.90;;;;;;5118791;27;20058;-73
2023/09/04 03:54:15;;;;;;;15.38;10.85;;;13.80;99.90;;;;;;5134547;27;20134;-72
2023/09/04 03:57:01;;;;;;;14.15;10.25;;;13.80;99.90;;;;;;5115480;27;20103;-70
2023/09/04 03:59:51;;;;;;;16.88;11.77;;;13.80;99.90;;;;;;5114857;27;20082;-71
2023/09/04 04:02:38;;;;;;;13.82;10.48;;;13.70;99.90;;;;;;5133832;27;20070;-71
2023/09/04 04:05:25;;;;;;;18.02;10.75;;;13.70;99.90;;;;;;5135415;27;20557;-75
2023/09/04 04:08:11;;;;;;;11.25;8.63;;;13.70;99.90;;;;;;5118901;27;20085;-70
2023/09/04 04:11:00;;;;;;;13.85;8.80;;;13.70;99.90;;;;;;5115084;27;20051;-71
2023/09/04 04:13:47;;;;;;;12.68;9.55;;;13.60;99.90;;;;;;5115857;27;20047;-73
2023/09/04 04:16:36;;;;;;;12.63;8.30;;;13.60;99.90;;;;;;5133566;27;20058;-85
2023/09/04 04:19:22;;;;;;;13.43;9.82;;;13.60;99.90;;;;;;5133733;27;20047;-86
2023/09/04 04:22:08;;;;;;;14.32;10.35;;;13.60;99.90;;;;;;5132979;27;20054;-83
2023/09/04 04:24:54;;;;;;;15.18;10.10;;;13.60;99.90;;;;;;5133200;27;20042;-81
2023/09/04 04:27:42;;;;;;;13.35;9.80;;;13.60;99.90;;;;;;5134122;27;20134;-74
2023/09/04 04:30:28;;;;;;;12.45;9.52;;;13.60;99.90;;;;;;5132989;27;20053;-76
2023/09/04 04:33:14;;;;;;;9.38;6.80;;;13.60;99.90;;;;;;5132687;27;20047;-79
2023/09/04 04:36:03;;;;;;;12.40;8.40;;;13.60;99.90;;;;;;5100984;27;20055;-75
2023/09/04 04:38:49;;;;;;;9.63;7.15;;;13.60;99.90;;;;;;5133824;27;20145;-74
2023/09/04 04:41:35;;;;;;;11.93;9.50;;;13.60;99.90;;;;;;5132190;27;20053;-77
2023/09/04 04:44:21;;;;;;;10.40;8.32;;;13.60;99.90;;;;;;5133067;27;20047;-77
2023/09/04 04:47:07;;;;;;;10.38;7.55;;;13.60;99.90;;;;;;5132715;27;20157;-79
2023/09/04 04:49:53;;;;;;;12.80;9.75;;;13.60;99.90;;;;;;5114227;27;20051;-78
2023/09/04 04:52:39;;;;;;;12.20;9.35;;;13.50;99.90;;;;;;5114235;27;20047;-80
2023/09/04 04:55:25;;;;;;;12.38;8.68;;;13.60;99.90;;;;;;5132392;27;20047;-72
2023/09/04 04:58:12;;;;;;;10.43;8.35;;;13.60;99.90;;;;;;5114710;27;20047;-73
2023/09/04 05:00:58;;;;;;;11.10;7.57;;;13.50;99.90;;;;;;5132087;27;20062;-72
2023/09/04 05:03:44;;;;;;;10.35;7.85;;;13.50;99.90;;;;;;5132740;27;20047;-70
2023/09/04 05:06:30;;;;;;;10.40;7.22;;;13.50;99.90;;;;;;5113926;27;20055;-73
2023/09/04 05:09:16;;;;;;;11.82;8.30;;;13.50;99.90;;;;;;5130912;27;20388;-71
2023/09/04 05:12:03;;;;;;;11.68;8.38;;;13.50;99.90;;;;;;5131959;27;20047;-71
2023/09/04 05:14:50;;;;;;;10.95;8.15;;;13.50;99.90;;;;;;5113331;27;20138;-72
2023/09/04 05:17:36;;;;;;;12.75;8.93;;;13.50;99.90;;;;;;5131636;27;20039;-71
2023/09/04 05:20:22;;;;;;;11.52;7.30;;;13.60;99.90;;;;;;5131901;27;20145;-72
2023/09/04 05:23:08;;;;;;;11.00;7.85;;;13.50;99.90;;;;;;5114304;27;20065;-72
2023/09/04 05:25:55;;;;;;;13.02;8.38;;;13.60;99.90;;;;;;5132496;27;20054;-70
2023/09/04 05:28:41;;;;;;;10.43;7.65;;;13.60;99.90;;;;;;5131984;27;20123;-71
2023/09/04 05:31:27;;;;;;;10.55;7.32;;;13.60;99.90;;;;;;5112485;27;20055;-73
2023/09/04 05:34:13;;;;;;;13.23;8.60;;;13.60;99.90;;;;;;5131449;27;20073;-74
2023/09/04 05:36:59;;;;;;;12.75;9.07;;;13.70;99.90;;;;;;5132120;27;20055;-72
2023/09/04 05:39:45;;;;;;;9.48;7.40;;;13.80;99.90;;;;;;5098957;27;20047;-71
2023/09/04 05:42:31;;;;;;;10.32;7.10;;;13.80;99.90;;;;;;5132056;27;20100;-76
2023/09/04 05:45:21;;;;;;;10.82;7.85;;;13.80;99.90;;;;;;5132738;27;20046;-76
2023/09/04 05:48:07;;;;;;;10.60;8.02;;;13.90;99.90;;;;;;5132440;27;20439;-71
2023/09/04 05:50:53;;;;;;;9.70;6.97;;;14.00;99.90;;;;;;5112637;27;20094;-72
2023/09/04 05:53:39;;;;;;;13.63;9.32;;;14.00;99.90;;;;;;5131291;27;20039;-72
2023/09/04 05:56:27;;;;;;;12.77;8.07;;;14.10;99.90;;;;;;5099718;27;20546;-73
2023/09/04 05:59:14;;;;;;;11.90;8.05;;;14.10;99.90;;;;;;5112439;27;20503;-72
2023/09/04 06:02:00;;;;;;;12.50;7.88;;;14.20;99.90;;;;;;5130035;27;20501;-76
2023/09/04 06:04:46;;;;;;;12.13;8.52;;;14.20;99.90;;;;;;5131503;27;20517;-71
2023/09/04 06:07:34;;;;;;;12.05;8.27;;;14.20;99.90;;;;;;5131378;27;20055;-74
2023/09/04 06:10:20;;;;;;;13.98;8.35;;;14.20;99.90;;;;;;5131063;27;20184;-71
2023/09/04 06:13:06;;;;;;;12.30;9.13;;;14.30;99.90;;;;;;5131832;27;20180;-76
2023/09/04 06:15:53;;;;;;;14.10;8.95;;;14.30;99.90;;;;;;5116825;27;20053;-74
2023/09/04 06:18:39;;;;;;;14.43;8.45;;;14.30;99.90;;;;;;5131912;28;20103;-85
2023/09/04 06:21:25;;;;;;;11.93;8.20;;;14.40;99.90;;;;;;5130935;27;20100;-82
2023/09/04 06:24:11;;;;;;;13.00;8.38;;;14.40;99.90;;;;;;5131516;28;20051;-83
2023/09/04 06:26:57;;;;;;;10.48;7.32;;;14.50;99.90;;;;;;5131345;28;20108;-85
2023/09/04 06:29:43;;;;;;;11.25;7.95;;;14.60;99.90;;;;;;5131393;28;20055;-85
2023/09/04 06:32:29;;;;;;;9.75;7.40;;;14.60;99.90;;;;;;5113588;28;20043;-82
2023/09/04 06:35:15;;;;;;;10.65;7.78;;;14.70;99.90;;;;;;5113188;28;20051;-72
2023/09/04 06:38:02;;;;;;;15.00;8.05;;;14.80;99.90;;;;;;5131258;28;20491;-71
2023/09/04 06:44:32;;;;;;;9.93;7.13;;;15.20;99.90;;;;;;5068531;28;20095;-85
2023/09/04 06:47:18;;;;;;;9.68;7.55;;;15.40;99.90;;;;;;5067430;28;20208;-79
2023/09/04 06:50:06;;;;;;;13.50;7.80;;;15.70;99.90;;;;;;5050778;28;20508;-85
2023/09/04 06:52:52;;;;;;;10.10;7.43;;;15.80;99.90;;;;;;5053937;28;20561;-83
2023/09/04 06:55:38;;;;;;;11.88;6.38;;;16.00;99.90;;;;;;5067281;28;20421;-84
2023/09/04 06:58:26;;;;;;;9.95;6.85;;;16.20;99.90;;;;;;5066563;28;20112;-78
2023/09/04 07:01:12;;;;;;;11.30;7.30;;;16.40;99.90;;;;;;5067300;28;20053;-76
2023/09/04 07:03:58;;;;;;;12.45;7.40;;;16.60;99.90;;;;;;5050219;28;20049;-73
2023/09/04 07:06:45;;;;;;;10.25;7.32;;;16.80;99.90;;;;;;5067466;28;20059;-78
2023/09/04 07:09:31;;;;;;;12.13;7.03;;;16.90;99.90;;;;;;5067283;28;20048;-74
2023/09/04 07:12:17;;;;;;;11.25;7.82;;;17.10;99.90;;;;;;5066385;28;20040;-73
2023/09/04 07:15:03;;;;;;;9.75;6.43;;;17.30;99.90;;;;;;5109272;28;20520;-76
2023/09/04 07:17:49;;;;;;;9.07;6.68;;;17.50;99.90;;;;;;5130260;28;20062;-74
2023/09/04 07:20:35;;;;;;;10.30;6.28;;;17.70;99.90;;;;;;5112276;28;20089;-79
2023/09/04 07:23:22;;;;;;;9.88;6.28;;;17.90;99.90;;;;;;5130668;28;20100;-73
2023/09/04 07:26:08;;;;;;;9.82;6.53;;;18.00;99.90;;;;;;5098662;28;20129;-71
2023/09/04 07:28:54;;;;;;;7.82;5.72;;;18.20;99.90;;;;;;5112206;28;20061;-71
2023/09/04 07:31:40;;;;;;;8.60;6.00;;;18.40;99.90;;;;;;5130946;28;20051;-79
2023/09/04 07:34:27;;;;;;;11.60;5.88;;;18.50;99.90;;;;;;5133016;27;20051;-71
2023/09/04 07:37:13;;;;;;;9.93;5.32;;;18.70;99.90;;;;;;5134638;27;20066;-72
2023/09/04 07:39:59;;;;;;;8.98;5.15;;;18.90;99.90;;;;;;5134674;27;20039;-73
2023/09/04 07:42:46;;;;;;;7.85;5.25;;;18.90;99.90;;;;;;5133479;27;20565;-77
2023/09/04 07:45:32;;;;;;;7.78;5.43;;;19.10;99.90;;;;;;5115537;27;20148;-79
2023/09/04 07:48:17;;;;;;;10.65;5.72;;;19.20;99.90;;;;;;5133786;27;20058;-72
2023/09/04 07:51:06;;;;;;;8.05;5.18;;;19.40;99.90;;;;;;5134102;27;20103;-75
2023/09/04 07:53:52;;;;;;;10.13;4.90;;;19.50;99.90;;;;;;5134129;27;20100;-74
2023/09/04 07:56:38;;;;;;;8.77;5.13;;;19.60;99.90;;;;;;5133048;27;20509;-74
2023/09/04 07:59:24;;;;;;;8.95;5.45;;;19.90;99.90;;;;;;5133661;27;20039;-75
2023/09/04 08:02:10;;;;;;;11.82;4.95;;;20.00;99.90;;;;;;5133431;27;20130;-74
2023/09/04 08:04:57;;;;;;;8.82;5.10;;;20.10;99.90;;;;;;5133397;27;20406;-81
2023/09/04 08:07:44;;;;;;;8.10;4.78;;;20.40;99.90;;;;;;5133408;27;20058;-82
2023/09/04 08:10:30;;;;;;;8.15;4.97;;;20.50;99.90;;;;;;5114603;27;20051;-76
2023/09/04 08:13:18;;;;;;;9.75;5.18;;;20.60;99.90;;;;;;5115087;27;20138;-77
2023/09/04 08:16:04;;;;;;;8.95;5.20;;;20.80;99.90;;;;;;5133510;27;20051;-70
2023/09/04 08:18:50;;;;;;;7.03;4.25;;;20.90;99.90;;;;;;5114503;27;20207;-71
2023/09/04 08:21:36;;;;;;;8.48;4.60;;;21.00;99.90;;;;;;5132909;27;20324;-71
2023/09/04 08:24:23;;;;;;;7.22;4.53;;;21.10;99.90;;;;;;5118128;27;20126;-76
2023/09/04 08:27:09;;;;;;;5.38;3.45;;;21.30;99.90;;;;;;5100983;27;20047;-76
2023/09/04 08:29:55;;;;;;;6.78;2.60;;;21.40;99.90;;;;;;5132818;27;20120;-77
2023/09/04 08:32:41;;;;;;;5.18;3.08;;;21.70;99.90;;;;;;5115251;27;20043;-80
2023/09/04 08:35:29;;;;;;;6.93;3.08;;;21.90;99.90;;;;;;5132542;27;20049;-70
2023/09/04 08:38:16;;;;;;;7.70;4.18;;;22.00;99.90;;;;;;5132618;27;20047;-75
2023/09/04 08:41:07;;;;;;;5.95;3.63;;;22.10;99.90;;;;;;5114785;27;20096;-72
2023/09/04 08:43:53;;;;;;;5.20;3.13;;;22.20;99.90;;;;;;5132535;27;20047;-76
2023/09/04 08:46:41;;;;;;;6.25;3.00;;;22.40;99.90;;;;;;5131941;27;20483;-76
2023/09/04 08:49:28;;;;;;;7.90;3.15;;;22.50;99.90;;;;;;5132167;27;20124;-82
2023/09/04 08:52:14;;;;;;;5.05;3.05;;;22.70;99.90;;;;;;5132865;27;20062;-75
2023/09/04 08:55:00;;;;;;;4.97;2.65;;;22.80;99.90;;;;;;5132308;27;20108;-79
2023/09/04 08:57:47;;;;;;;4.03;2.38;;;23.00;99.90;;;;;;5132175;27;20051;-79
2023/09/04 09:00:33;;;;;;;4.20;2.30;;;23.10;99.90;;;;;;5117454;27;20050;-69
2023/09/04 09:03:21;;;;;;;6.70;2.85;;;23.20;99.90;;;;;;5132746;27;20062;-77
2023/09/04 09:06:07;;;;;;;5.93;3.00;;;23.10;99.90;;;;;;5114855;27;20108;-73
2023/09/04 09:08:56;;;;;;;3.67;2.22;;;23.20;99.90;;;;;;5132509;27;20055;-72
2023/09/04 09:11:42;;;;;;;6.05;2.80;;;23.40;99.90;;;;;;5132669;27;20043;-71
2023/09/04 09:14:29;;;;;;;5.22;2.33;;;23.50;99.90;;;;;;5114107;27;20050;-71
2023/09/04 09:17:15;;;;;;;7.00;2.05;;;23.50;99.70;;;;;;5114237;27;20055;-76
2023/09/04 09:20:01;;;;;;;6.03;2.58;;;23.60;99.50;;;;;;5131998;27;20051;-76
2023/09/04 09:22:50;;;;;;;4.20;2.15;;;23.70;99.40;;;;;;5116835;27;20046;-80
2023/09/04 09:25:38;;;;;;;7.13;2.42;;;23.90;99.20;;;;;;5131847;27;20058;-76
2023/09/04 09:28:24;;;;;;;5.45;2.40;;;24.00;98.90;;;;;;5131989;27;20079;-76
2023/09/04 09:31:12;;;;;;;3.97;2.47;;;24.00;98.90;;;;;;5131931;27;20502;-74
2023/09/04 09:33:59;;;;;;;5.75;2.30;;;24.00;98.40;;;;;;5132871;27;20134;-74
2023/09/04 09:36:45;;;;;;;4.00;2.03;;;24.10;98.20;;;;;;5132131;27;20099;-86
2023/09/04 09:39:33;;;;;;;5.63;2.25;;;24.20;97.90;;;;;;5113501;27;20097;-83
2023/09/04 09:42:20;;;;;;;7.97;2.30;;;24.30;97.50;;;;;;5099604;27;20555;-80
2023/09/04 09:45:06;;;;;;;5.68;2.47;;;24.50;97.40;;;;;;5131257;27;20043;-73
2023/09/04 09:47:53;;;;;;;4.72;2.17;;;24.70;97.30;;;;;;5113381;27;20096;-73
2023/09/04 09:50:41;;;;;;;4.03;1.92;;;24.90;97.10;;;;;;5131671;27;20058;-83
2023/09/04 09:53:46;;;;;;;4.90;2.17;;;25.00;96.70;;;;;;5112580;27;20058;-80
2023/09/04 09:56:33;;;;;;;5.05;2.28;;;25.10;96.00;;;;;;5130610;27;20097;-77
2023/09/04 09:59:19;;;;;;;7.85;2.35;;;25.20;96.30;;;;;;5112673;27;20108;-73
2023/09/04 10:02:06;;;;;;;4.93;2.15;;;25.30;95.80;;;;;;5099132;27;20047;-78
2023/09/04 10:04:53;;;;;;;4.68;1.83;;;25.40;95.50;;;;;;5113125;27;20051;-83
2023/09/04 10:07:40;;;;;;;3.90;1.40;;;25.60;95.40;;;;;;5131555;27;20058;-76
2023/09/04 10:10:28;;;;;;;2.90;1.38;;;25.80;95.50;;;;;;5131658;27;20076;-74
2023/09/04 10:13:26;;;;;;;4.07;1.70;;;26.10;95.50;;;;;;5114326;27;20110;-75
2023/09/04 10:16:19;;;;;;;4.90;2.00;;;26.30;94.30;;;;;;5115683;28;20092;-76
2023/09/04 10:19:09;;;;;;;4.18;2.03;;;26.50;94.80;;;;;;5133017;27;20051;-79
2023/09/04 10:22:13;;;;;;;6.13;1.67;;;26.70;94.60;;;;;;5133898;28;20050;-76
2023/09/04 10:25:05;;;;;;;3.90;1.50;;;27.00;94.00;;;;;;5131889;28;20158;-80
2023/09/04 10:27:58;;;;;;;4.45;2.22;;;27.20;93.40;;;;;;5113338;28;20508;-81
2023/09/04 10:30:52;;;;;;;3.10;1.63;;;27.20;92.60;;;;;;5131077;28;20864;-79
2023/09/04 10:33:38;;;;;;;4.45;1.60;;;27.60;92.20;;;;;;5131431;28;20051;-83
2023/09/04 10:36:25;;;;;;;4.80;1.70;;;27.80;92.70;;;;;;5131346;28;20051;-79
2023/09/04 10:39:12;;;;;;;6.32;1.80;;;27.90;91.20;;;;;;5130549;28;20045;-83
2023/09/04 10:41:58;;;;;;;3.53;1.70;;;27.80;91.20;;;;;;5131572;28;20130;-74
2023/09/04 10:44:45;;;;;;;4.47;1.92;;;27.70;90.50;;;;;;5113647;28;20545;-83
2023/09/04 10:47:49;;;;;;;9.77;1.50;;;27.70;90.50;;;;;;5131063;28;20051;-81
2023/09/04 10:50:39;;;;;;;6.97;1.40;;;27.80;89.80;;;;;;5132933;28;20054;-79
2023/09/04 10:53:31;;;;;;;3.83;1.58;;;28.00;89.70;;;;;;5132992;28;20047;-77
2023/09/04 10:56:17;;;;;;;3.53;1.30;;;28.10;88.70;;;;;;5133437;28;20039;-81
2023/09/04 10:59:05;;;;;;;2.97;1.38;;;28.40;88.40;;;;;;5099777;28;20073;-79
2023/09/04 11:01:51;;;;;;;4.22;1.15;;;28.30;87.20;;;;;;5132499;28;20047;-86
2023/09/04 11:04:37;;;;;;;3.63;1.60;;;28.40;85.90;;;;;;5112540;28;20165;-83
2023/09/04 11:07:26;;;;;;;2.40;1.38;;;28.80;87.40;;;;;;5112957;28;20063;-76
2023/09/04 11:10:14;;;;;;;2.75;1.30;;;29.00;85.50;;;;;;5134817;27;20051;-74
2023/09/04 11:13:01;;;;;;;5.22;1.52;;;29.30;84.80;;;;;;5116248;27;20047;-78
2023/09/04 11:15:47;;;;;;;8.50;2.25;;;29.50;85.20;;;;;;5134371;27;20054;-80
2023/09/04 11:18:35;;;;;;;3.70;1.10;;;30.00;85.40;;;;;;5120013;27;20126;-69
2023/09/04 11:21:22;;;;;;;3.95;1.20;;;29.90;82.90;;;;;;5118314;27;20099;-72
2023/09/04 11:24:08;;;;;;;2.80;0.98;;;30.30;82.80;;;;;;5134561;27;20047;-77
2023/09/04 11:26:55;;;;;;;3.17;1.30;;;30.40;82.60;;;;;;5134020;27;20089;-81
2023/09/04 11:29:41;;;;;;;2.22;1.00;;;30.40;81.90;;;;;;5133653;27;20051;-83
2023/09/04 11:32:28;;;;;;;3.13;1.05;;;30.40;81.30;;;;;;5116024;27;20904;-82
2023/09/04 11:35:15;;;;;;;3.92;1.13;;;30.50;81.10;;;;;;5133670;27;20137;-79
2023/09/04 11:38:21;;;;;;;3.95;1.23;;;30.40;79.70;;;;;;5115722;27;20055;-78
2023/09/04 11:41:17;;;;;;;2.95;1.08;;;30.90;79.30;;;;;;5115534;27;20058;-77
2023/09/04 11:44:05;;;;;;;3.17;1.10;;;31.30;76.10;;;;;;5134288;27;20043;-75
2023/09/04 11:46:51;;;;;;;4.68;1.00;;;31.40;77.10;;;;;;5134370;27;20039;-76
2023/09/04 11:49:37;;;;;;;3.10;1.20;;;31.70;77.40;;;;;;5115333;27;20055;-79
2023/09/04 11:52:28;;;;;;;2.05;0.98;;;32.10;76.80;;;;;;5134160;27;20195;-73
2023/09/04 11:55:14;;;;;;;4.85;1.40;;;32.50;76.20;;;;;;5134333;27;20469;-86
2023/09/04 11:58:03;;;;;;;4.22;0.90;;;32.90;75.40;;;;;;5133558;27;20054;-83
2023/09/04 12:00:49;;;;;;;3.13;1.40;;;33.20;72.70;;;;;;5135062;27;20762;-86
2023/09/04 12:03:35;;;;;;;3.97;1.35;;;33.20;72.40;;;;;;5135069;27;20047;-86
2023/09/04 12:06:27;;;;;;;7.10;1.33;;;32.80;71.20;;;;;;5115480;27;20239;-81
2023/09/04 12:09:13;;;;;;;2.95;1.05;;;33.30;71.50;;;;;;5118893;27;20555;-74
2023/09/04 12:12:04;;;;;;;2.50;1.30;;;33.50;71.80;;;;;;5134362;27;20097;-86
2023/09/04 12:14:50;;;;;;;2.92;0.93;;;33.90;70.50;;;;;;5134956;27;20043;-77
2023/09/04 12:17:36;;;;;;;2.45;1.00;;;34.10;70.60;;;;;;5135150;27;20505;-71
2023/09/04 12:20:22;;;;;;;3.30;1.25;;;34.40;69.40;;;;;;5135529;27;20051;-77
2023/09/04 12:23:09;;;;;;;3.78;1.20;;;34.30;67.80;;;;;;5143961;27;20506;-83
2023/09/04 12:25:55;;;;;;;4.53;1.20;;;34.40;67.80;;;;;;5138708;27;20043;-85
2023/09/04 12:28:42;;;;;;;2.78;1.20;;;34.90;67.00;;;;;;5119368;27;20430;-85
2023/09/04 12:31:28;;;;;;;3.42;1.08;;;35.30;66.10;;;;;;5134965;27;20058;-79
2023/09/04 12:34:14;;;;;;;4.53;1.17;;;35.10;65.20;;;;;;5133825;27;20059;-82
2023/09/04 12:37:01;;;;;;;5.00;1.10;;;35.50;63.60;;;;;;5132929;27;20062;-84
2023/09/04 12:39:47;;;;;;;2.72;1.20;;;36.00;64.20;;;;;;5117834;27;20491;-80
2023/09/04 12:42:34;;;;;;;4.88;1.50;;;36.40;63.30;;;;;;5132934;27;20055;-71
2023/09/04 12:45:20;;;;;;;2.40;1.10;;;36.40;62.10;;;;;;5118439;27;20046;-71
2023/09/04 12:48:16;;;;;;;3.20;1.00;;;36.80;61.50;;;;;;5133446;27;20050;-75
2023/09/04 12:51:02;;;;;;;4.03;1.58;;;37.20;61.50;;;;;;5114916;27;20080;-71
2023/09/04 12:53:48;;;;;;;3.53;1.27;;;37.50;61.30;;;;;;5118570;27;20051;-71
2023/09/04 12:56:35;;;;;;;2.95;1.20;;;38.00;60.30;;;;;;5133206;27;20092;-76
2023/09/04 12:59:21;;;;;;;3.75;1.52;;;38.40;59.80;;;;;;5132328;27;20119;-78
2023/09/04 13:02:07;;;;;;;3.67;1.33;;;38.70;58.90;;;;;;5133292;27;20047;-73
2023/09/04 13:04:53;;;;;;;3.50;1.30;;;38.80;57.20;;;;;;5100634;27;20039;-71
2023/09/04 13:07:39;;;;;;;2.25;0.90;;;39.30;57.20;;;;;;5132383;27;20544;-86
2023/09/04 13:10:25;;;;;;;4.68;1.05;;;39.50;55.70;;;;;;5132230;27;20054;-82
2023/09/04 13:13:11;;;;;;;2.85;1.48;;;40.00;55.90;;;;;;5131995;27;20050;-83
2023/09/04 13:15:57;;;;;;;3.17;1.23;;;39.90;53.90;;;;;;5132359;27;20047;-72
2023/09/04 13:18:44;;;;;;;2.80;1.10;;;40.20;53.80;;;;;;5131697;27;20047;-75
2023/09/04 13:21:31;;;;;;;2.22;0.90;;;40.50;53.10;;;;;;5113977;27;20055;-72
2023/09/04 13:24:17;;;;;;;3.33;1.10;;;40.70;53.60;;;;;;5131625;27;20145;-72
2023/09/04 13:27:04;;;;;;;3.53;0.98;;;41.20;52.80;;;;;;5131918;27;20498;-75
2023/09/04 13:29:50;;;;;;;2.50;1.08;;;41.40;52.20;;;;;;5133058;27;20387;-79
2023/09/04 13:32:37;;;;;;;3.10;1.10;;;41.30;50.90;;;;;;5131245;27;20047;-71
2023/09/04 13:35:23;;;;;;;3.72;1.10;;;41.70;51.60;;;;;;5100160;27;20047;-71
2023/09/04 13:38:09;;;;;;;2.53;1.10;;;41.60;51.60;;;;;;5131772;27;20050;-73
2023/09/04 13:40:55;;;;;;;2.65;0.90;;;42.10;51.60;;;;;;5131736;27;20134;-73
2023/09/04 13:43:42;;;;;;;3.28;1.27;;;42.10;50.60;;;;;;5131387;27;20192;-84
2023/09/04 13:46:28;;;;;;;3.30;1.10;;;42.30;49.60;;;;;;5112807;27;20504;-82
2023/09/04 13:49:14;;;;;;;3.08;1.20;;;42.00;49.00;;;;;;5116745;27;20586;-72
2023/09/04 13:52:00;;;;;;;3.67;1.20;;;42.30;48.60;;;;;;5131672;27;20043;-72
2023/09/04 13:54:46;;;;;;;4.45;1.55;;;42.40;48.60;;;;;;5131747;27;20047;-74
2023/09/04 13:57:33;;;;;;;3.00;0.98;;;42.30;48.30;;;;;;5098455;27;20054;-78
2023/09/04 14:00:20;;;;;;;4.03;1.33;;;42.40;48.60;;;;;;5131198;27;20152;-80
2023/09/04 14:03:07;;;;;;;2.90;1.20;;;42.40;48.00;;;;;;5116668;27;20047;-73
2023/09/04 14:05:53;;;;;;;4.30;1.20;;;42.50;47.90;;;;;;5130687;27;20535;-72
2023/09/04 14:08:39;;;;;;;7.85;1.90;;;42.40;47.90;;;;;;5131321;27;20051;-72
2023/09/04 14:11:25;;;;;;;5.18;1.33;;;42.30;47.60;;;;;;5113028;27;20051;-77
2023/09/04 14:14:11;;;;;;;3.08;1.25;;;42.20;47.70;;;;;;5131092;27;20054;-71
2023/09/04 14:16:57;;;;;;;4.15;1.13;;;42.20;47.20;;;;;;5131820;27;20058;-80
2023/09/04 14:19:43;;;;;;;2.90;1.10;;;42.10;47.70;;;;;;5113198;28;20108;-76
2023/09/04 14:22:29;;;;;;;3.10;1.10;;;41.50;47.20;;;;;;5131556;27;20134;-72
2023/09/04 14:25:16;;;;;;;2.15;1.00;;;41.00;47.00;;;;;;5131441;28;20111;-73
2023/09/04 14:28:02;;;;;;;2.58;0.98;;;40.70;47.70;;;;;;5113381;28;20043;-79